createdAt,value
2022-12-28T00:00:10.768Z,996.46
2022-12-28T00:01:10.703Z,996.44
2022-12-28T00:02:10.812Z,996.45
2022-12-28T00:03:10.699Z,996.42
2022-12-28T00:04:10.783Z,996.47
2022-12-28T00:05:10.695Z,996.41
2022-12-28T00:06:10.670Z,996.35
2022-12-28T00:07:10.665Z,996.34
2022-12-28T00:08:10.617Z,996.30
2022-12-28T00:09:10.768Z,996.33
2022-12-28T00:10:10.681Z,996.31
2022-12-28T00:11:18.687Z,996.28
2022-12-28T00:12:11.643Z,996.20
2022-12-28T00:13:10.613Z,996.14
2022-12-28T00:14:10.611Z,996.16
2022-12-28T00:15:10.662Z,996.19
2022-12-28T00:16:10.670Z,996.10
2022-12-28T00:17:10.589Z,996.23
2022-12-28T00:18:10.586Z,996.10
2022-12-28T00:19:10.622Z,996.13
2022-12-28T00:20:10.674Z,996.08
2022-12-28T00:21:10.580Z,996.03
2022-12-28T00:22:10.593Z,996.05
2022-12-28T00:23:10.612Z,996.02
2022-12-28T00:24:10.580Z,996.09
2022-12-28T00:25:10.572Z,996.02
2022-12-28T00:26:10.601Z,996.03
2022-12-28T00:27:10.566Z,995.99
2022-12-28T00:28:10.564Z,996.05
2022-12-28T00:29:10.557Z,996.02
2022-12-28T00:30:10.522Z,995.94
2022-12-28T00:31:10.666Z,995.97
2022-12-28T00:32:10.527Z,995.85
2022-12-28T00:33:10.511Z,995.75
2022-12-28T00:34:10.501Z,995.79
2022-12-28T00:35:10.518Z,995.76
2022-12-28T00:36:10.485Z,995.69
2022-12-28T00:37:13.171Z,995.64
2022-12-28T00:38:11.483Z,995.72
2022-12-28T00:39:10.505Z,995.74
2022-12-28T00:40:10.487Z,995.64
2022-12-28T00:41:10.466Z,995.64
2022-12-28T00:42:10.613Z,995.65
2022-12-28T00:43:10.456Z,995.58
2022-12-28T00:44:10.496Z,995.65
2022-12-28T00:45:10.489Z,995.62
2022-12-28T00:46:10.528Z,995.61
2022-12-28T00:47:10.463Z,995.59
2022-12-28T00:48:10.493Z,995.57
2022-12-28T00:49:10.453Z,995.54
2022-12-28T00:50:10.459Z,995.58
2022-12-28T00:51:10.408Z,995.57
2022-12-28T00:52:10.472Z,995.56
2022-12-28T00:53:10.401Z,995.55
2022-12-28T00:54:10.385Z,995.50
2022-12-28T00:55:10.424Z,995.48
2022-12-28T00:56:10.429Z,995.50
2022-12-28T00:57:10.403Z,995.57
2022-12-28T00:58:10.372Z,995.48
2022-12-28T00:59:10.555Z,995.51
2022-12-28T01:00:10.417Z,995.47
2022-12-28T01:01:10.456Z,995.44
2022-12-28T01:02:10.428Z,995.39
2022-12-28T01:03:10.356Z,995.40
2022-12-28T01:04:10.401Z,995.32
2022-12-28T01:05:10.325Z,995.28
2022-12-28T01:06:10.340Z,995.29
2022-12-28T01:07:10.366Z,995.26
2022-12-28T01:08:10.339Z,995.30
2022-12-28T01:09:10.347Z,995.11
2022-12-28T01:10:10.346Z,995.13
2022-12-28T01:11:10.328Z,995.13
2022-12-28T01:12:10.347Z,995.13
2022-12-28T01:13:10.313Z,995.11
2022-12-28T01:14:10.315Z,995.09
2022-12-28T01:15:10.344Z,995.06
2022-12-28T01:16:10.322Z,995.03
2022-12-28T01:17:10.329Z,995.00
2022-12-28T01:18:10.275Z,994.95
2022-12-28T01:19:10.299Z,994.99
2022-12-28T01:20:10.309Z,994.98
2022-12-28T01:21:10.410Z,994.97
2022-12-28T01:22:10.275Z,994.98
2022-12-28T01:23:10.256Z,994.91
2022-12-28T01:24:10.270Z,994.92
2022-12-28T01:25:10.265Z,994.87
2022-12-28T01:26:10.263Z,994.86
2022-12-28T01:27:10.247Z,994.86
2022-12-28T01:28:10.220Z,994.81
2022-12-28T01:29:10.272Z,994.82
2022-12-28T01:30:10.223Z,994.74
2022-12-28T01:31:10.246Z,994.79
2022-12-28T01:32:10.315Z,994.75
2022-12-28T01:33:10.251Z,994.70
2022-12-28T01:34:10.202Z,994.81
2022-12-28T01:35:10.177Z,994.74
2022-12-28T01:36:10.216Z,994.68
2022-12-28T01:37:10.315Z,994.63
2022-12-28T01:38:10.164Z,994.58
2022-12-28T01:39:10.275Z,994.61
2022-12-28T01:40:10.192Z,994.58
2022-12-28T01:41:10.146Z,994.52
2022-12-28T01:42:10.181Z,994.53
2022-12-28T01:43:10.784Z,994.53
2022-12-28T01:44:10.173Z,994.55
2022-12-28T01:45:10.134Z,994.48
2022-12-28T01:46:10.124Z,994.47
2022-12-28T01:47:10.121Z,994.48
2022-12-28T01:48:11.168Z,994.50
2022-12-28T01:49:10.160Z,994.52
2022-12-28T01:50:10.099Z,994.50
2022-12-28T01:51:10.121Z,994.52
2022-12-28T01:52:10.111Z,994.49
2022-12-28T01:53:10.115Z,994.48
2022-12-28T01:54:10.119Z,994.42
2022-12-28T01:55:10.085Z,994.40
2022-12-28T01:56:10.702Z,994.30
2022-12-28T01:57:10.071Z,994.35
2022-12-28T01:58:10.087Z,994.32
2022-12-28T01:59:10.192Z,994.33
2022-12-28T02:00:10.061Z,994.32
2022-12-28T02:01:10.805Z,994.27
2022-12-28T02:02:10.197Z,994.25
2022-12-28T02:03:10.053Z,994.16
2022-12-28T02:04:11.072Z,994.19
2022-12-28T02:05:10.006Z,994.20
2022-12-28T02:06:10.098Z,994.14
2022-12-28T02:07:10.016Z,994.17
2022-12-28T02:08:09.969Z,994.22
2022-12-28T02:09:10.037Z,994.09
2022-12-28T02:10:44.412Z,994.07
2022-12-28T02:11:10.996Z,994.05
2022-12-28T02:12:09.958Z,994.01
2022-12-28T02:13:10.021Z,993.89
2022-12-28T02:14:09.986Z,993.97
2022-12-28T02:15:10.031Z,993.96
2022-12-28T02:16:09.975Z,994.00
2022-12-28T02:17:10.019Z,993.91
2022-12-28T02:18:09.931Z,993.90
2022-12-28T02:19:09.975Z,993.90
2022-12-28T02:20:11.048Z,993.91
2022-12-28T02:21:10.032Z,993.81
2022-12-28T02:22:09.949Z,993.83
2022-12-28T02:23:09.948Z,993.72
2022-12-28T02:24:09.974Z,993.73
2022-12-28T02:25:12.646Z,993.67
2022-12-28T02:26:09.923Z,993.67
2022-12-28T02:27:09.907Z,993.72
2022-12-28T02:28:09.883Z,993.66
2022-12-28T02:29:09.938Z,993.67
2022-12-28T02:30:09.912Z,993.74
2022-12-28T02:31:09.915Z,993.72
2022-12-28T02:32:09.903Z,993.65
2022-12-28T02:33:09.893Z,993.69
2022-12-28T02:34:09.859Z,993.63
2022-12-28T02:35:09.977Z,993.64
2022-12-28T02:36:16.155Z,993.59
2022-12-28T02:37:11.013Z,993.55
2022-12-28T02:38:09.835Z,993.61
2022-12-28T02:39:09.898Z,993.53
2022-12-28T02:40:09.990Z,993.53
2022-12-28T02:41:09.835Z,993.50
2022-12-28T02:42:09.854Z,993.46
2022-12-28T02:43:09.828Z,993.52
2022-12-28T02:44:09.833Z,993.51
2022-12-28T02:45:09.833Z,993.52
2022-12-28T02:46:10.663Z,993.48
2022-12-28T02:47:09.766Z,993.50
2022-12-28T02:48:09.795Z,993.54
2022-12-28T02:49:09.806Z,993.52
2022-12-28T02:50:09.812Z,993.53
2022-12-28T02:51:09.769Z,993.42
2022-12-28T02:52:09.781Z,993.39
2022-12-28T02:53:09.787Z,993.42
2022-12-28T02:54:09.783Z,993.28
2022-12-28T02:55:09.783Z,993.22
2022-12-28T02:56:09.797Z,993.17
2022-12-28T02:57:09.767Z,993.19
2022-12-28T02:58:09.717Z,993.24
2022-12-28T02:59:09.741Z,993.14
2022-12-28T03:00:09.762Z,993.25
2022-12-28T03:01:09.890Z,993.18
2022-12-28T03:02:09.818Z,993.18
2022-12-28T03:03:09.786Z,993.19
2022-12-28T03:04:09.738Z,993.09
2022-12-28T03:05:09.734Z,993.11
2022-12-28T03:06:09.676Z,993.10
2022-12-28T03:07:09.707Z,993.10
2022-12-28T03:08:09.684Z,993.05
2022-12-28T03:09:09.687Z,993.04
2022-12-28T03:10:09.662Z,993.05
2022-12-28T03:11:09.667Z,993.07
2022-12-28T03:12:09.625Z,993.04
2022-12-28T03:13:10.632Z,992.99
2022-12-28T03:14:09.672Z,992.94
2022-12-28T03:15:09.648Z,992.95
2022-12-28T03:16:09.650Z,992.86
2022-12-28T03:17:09.607Z,992.90
2022-12-28T03:18:09.645Z,992.84
2022-12-28T03:19:09.617Z,992.81
2022-12-28T03:20:09.646Z,992.89
2022-12-28T03:21:09.625Z,992.80
2022-12-28T03:22:09.610Z,992.92
2022-12-28T03:23:09.584Z,992.83
2022-12-28T03:24:09.664Z,992.88
2022-12-28T03:25:09.598Z,992.87
2022-12-28T03:26:09.530Z,992.92
2022-12-28T03:27:09.553Z,992.93
2022-12-28T03:28:09.634Z,992.98
2022-12-28T03:29:09.551Z,993.02
2022-12-28T03:30:09.575Z,993.00
2022-12-28T03:31:09.566Z,992.94
2022-12-28T03:32:09.533Z,992.99
2022-12-28T03:33:09.534Z,992.91
2022-12-28T03:34:09.544Z,992.94
2022-12-28T03:35:09.515Z,992.99
2022-12-28T03:36:09.535Z,992.95
2022-12-28T03:37:09.511Z,992.89
2022-12-28T03:38:09.482Z,992.89
2022-12-28T03:39:09.522Z,992.87
2022-12-28T03:40:09.535Z,992.91
2022-12-28T03:41:09.487Z,992.92
2022-12-28T03:42:09.450Z,992.88
2022-12-28T03:43:09.424Z,992.87
2022-12-28T03:44:09.437Z,992.86
2022-12-28T03:45:09.472Z,992.83
2022-12-28T03:46:09.511Z,992.82
2022-12-28T03:47:09.418Z,992.75
2022-12-28T03:48:09.420Z,992.72
2022-12-28T03:49:09.455Z,992.70
2022-12-28T03:50:09.436Z,992.68
2022-12-28T03:51:09.450Z,992.69
2022-12-28T03:52:09.389Z,992.65
2022-12-28T03:53:09.375Z,992.67
2022-12-28T03:54:09.424Z,992.62
2022-12-28T03:55:09.433Z,992.65
2022-12-28T03:56:09.364Z,992.57
2022-12-28T03:57:09.413Z,992.60
2022-12-28T03:58:09.398Z,992.59
2022-12-28T03:59:09.379Z,992.56
2022-12-28T04:00:09.359Z,992.56
2022-12-28T04:01:09.439Z,992.59
2022-12-28T04:02:09.421Z,992.58
2022-12-28T04:03:09.374Z,992.64
2022-12-28T04:04:09.345Z,992.59
2022-12-28T04:05:09.352Z,992.59
2022-12-28T04:06:09.300Z,992.53
2022-12-28T04:07:09.318Z,992.48
2022-12-28T04:08:09.304Z,992.49
2022-12-28T04:09:09.277Z,992.45
2022-12-28T04:10:09.307Z,992.46
2022-12-28T04:11:09.328Z,992.33
2022-12-28T04:12:09.255Z,992.41
2022-12-28T04:13:09.299Z,992.38
2022-12-28T04:14:11.166Z,992.42
2022-12-28T04:15:09.252Z,992.38
2022-12-28T04:16:09.342Z,992.28
2022-12-28T04:17:09.248Z,992.28
2022-12-28T04:18:09.231Z,992.31
2022-12-28T04:19:09.194Z,992.34
2022-12-28T04:20:09.219Z,992.22
2022-12-28T04:21:09.232Z,992.24
2022-12-28T04:22:09.219Z,992.16
2022-12-28T04:23:09.204Z,992.21
2022-12-28T04:24:09.208Z,992.16
2022-12-28T04:25:09.183Z,992.18
2022-12-28T04:26:09.159Z,992.25
2022-12-28T04:27:09.212Z,992.17
2022-12-28T04:28:09.158Z,992.19
2022-12-28T04:29:09.180Z,992.10
2022-12-28T04:30:09.153Z,992.16
2022-12-28T04:31:09.144Z,992.16
2022-12-28T04:32:09.143Z,992.11
2022-12-28T04:33:09.338Z,992.10
2022-12-28T04:34:09.096Z,992.10
2022-12-28T04:35:09.137Z,992.11
2022-12-28T04:36:09.098Z,991.94
2022-12-28T04:37:09.107Z,991.98
2022-12-28T04:38:09.095Z,992.02
2022-12-28T04:39:09.089Z,991.99
2022-12-28T04:40:09.095Z,991.99
2022-12-28T04:41:09.076Z,991.88
2022-12-28T04:42:09.073Z,991.94
2022-12-28T04:43:09.090Z,991.96
2022-12-28T04:44:09.108Z,991.90
2022-12-28T04:45:09.052Z,991.83
2022-12-28T04:46:09.093Z,991.73
2022-12-28T04:47:09.014Z,991.66
2022-12-28T04:48:10.023Z,991.72
2022-12-28T04:49:09.104Z,991.68
2022-12-28T04:50:09.010Z,991.62
2022-12-28T04:51:09.003Z,991.59
2022-12-28T04:52:09.008Z,991.53
2022-12-28T04:53:09.004Z,991.54
2022-12-28T04:54:08.983Z,991.45
2022-12-28T04:55:09.015Z,991.43
2022-12-28T04:56:09.994Z,991.40
2022-12-28T04:57:08.982Z,991.34
2022-12-28T04:58:08.960Z,991.37
2022-12-28T04:59:08.945Z,991.37
2022-12-28T05:00:08.965Z,991.31
2022-12-28T05:01:09.102Z,991.36
2022-12-28T05:02:09.174Z,991.31
2022-12-28T05:03:08.925Z,991.35
2022-12-28T05:04:08.941Z,991.34
2022-12-28T05:05:08.911Z,991.38
2022-12-28T05:06:08.952Z,991.32
2022-12-28T05:07:08.926Z,991.41
2022-12-28T05:08:08.906Z,991.47
2022-12-28T05:09:08.898Z,991.40
2022-12-28T05:10:08.892Z,991.38
2022-12-28T05:11:08.924Z,991.39
2022-12-28T05:12:08.862Z,991.43
2022-12-28T05:13:08.866Z,991.40
2022-12-28T05:14:08.883Z,991.41
2022-12-28T05:15:08.919Z,991.44
2022-12-28T05:16:08.892Z,991.44
2022-12-28T05:17:08.879Z,991.46
2022-12-28T05:18:08.852Z,991.37
2022-12-28T05:19:08.866Z,991.36
2022-12-28T05:20:08.858Z,991.42
2022-12-28T05:21:08.828Z,991.37
2022-12-28T05:22:08.861Z,991.38
2022-12-28T05:23:08.783Z,991.43
2022-12-28T05:24:08.802Z,991.42
2022-12-28T05:25:08.868Z,991.33
2022-12-28T05:26:08.795Z,991.23
2022-12-28T05:27:08.802Z,991.24
2022-12-28T05:28:08.783Z,991.22
2022-12-28T05:29:08.753Z,991.28
2022-12-28T05:30:08.796Z,991.24
2022-12-28T05:31:08.842Z,991.31
2022-12-28T05:32:08.790Z,991.30
2022-12-28T05:33:08.729Z,991.27
2022-12-28T05:34:08.707Z,991.25
2022-12-28T05:35:08.754Z,991.24
2022-12-28T05:36:08.711Z,991.26
2022-12-28T05:37:08.739Z,991.29
2022-12-28T05:38:08.706Z,991.26
2022-12-28T05:39:08.768Z,991.28
2022-12-28T05:40:08.696Z,991.29
2022-12-28T05:41:08.683Z,991.20
2022-12-28T05:42:08.708Z,991.24
2022-12-28T05:43:08.707Z,991.23
2022-12-28T05:44:08.700Z,991.20
2022-12-28T05:45:08.714Z,991.15
2022-12-28T05:46:08.698Z,991.20
2022-12-28T05:47:08.680Z,991.24
2022-12-28T05:48:08.674Z,991.19
2022-12-28T05:49:08.658Z,991.19
2022-12-28T05:50:08.670Z,991.20
2022-12-28T05:51:08.630Z,991.23
2022-12-28T05:52:08.598Z,991.18
2022-12-28T05:53:08.609Z,991.24
2022-12-28T05:54:08.624Z,991.16
2022-12-28T05:55:08.753Z,991.27
2022-12-28T05:56:13.870Z,991.17
2022-12-28T05:57:10.645Z,991.16
2022-12-28T05:58:08.577Z,991.12
2022-12-28T05:59:08.603Z,991.12
2022-12-28T06:00:08.593Z,991.00
2022-12-28T06:01:08.721Z,991.02
2022-12-28T06:02:08.757Z,991.02
2022-12-28T06:03:08.826Z,990.93
2022-12-28T06:04:08.562Z,990.86
2022-12-28T06:05:08.574Z,990.90
2022-12-28T06:06:08.575Z,990.78
2022-12-28T06:07:08.514Z,990.82
2022-12-28T06:08:08.500Z,990.84
2022-12-28T06:09:08.493Z,990.82
2022-12-28T06:10:08.570Z,990.81
2022-12-28T06:11:08.618Z,990.87
2022-12-28T06:12:08.504Z,990.75
2022-12-28T06:13:09.479Z,990.85
2022-12-28T06:14:08.498Z,990.83
2022-12-28T06:15:08.475Z,990.84
2022-12-28T06:16:08.536Z,990.73
2022-12-28T06:17:08.508Z,990.68
2022-12-28T06:18:08.452Z,990.74
2022-12-28T06:19:08.475Z,990.68
2022-12-28T06:20:08.437Z,990.67
2022-12-28T06:21:08.432Z,990.74
2022-12-28T06:22:08.411Z,990.62
2022-12-28T06:23:08.648Z,990.67
2022-12-28T06:24:08.420Z,990.55
2022-12-28T06:25:08.422Z,990.73
2022-12-28T06:26:08.406Z,990.57
2022-12-28T06:27:08.393Z,990.51
2022-12-28T06:28:08.420Z,990.67
2022-12-28T06:29:08.395Z,990.54
2022-12-28T06:30:08.356Z,990.49
2022-12-28T06:31:08.381Z,990.56
2022-12-28T06:32:08.426Z,990.51
2022-12-28T06:33:08.342Z,990.50
2022-12-28T06:34:08.405Z,990.57
2022-12-28T06:35:08.310Z,990.48
2022-12-28T06:36:12.330Z,990.44
2022-12-28T06:37:09.317Z,990.50
2022-12-28T06:38:08.312Z,990.53
2022-12-28T06:39:08.421Z,990.51
2022-12-28T06:40:08.309Z,990.47
2022-12-28T06:41:15.564Z,990.49
2022-12-28T06:42:10.306Z,990.46
2022-12-28T06:43:08.297Z,990.45
2022-12-28T06:44:08.302Z,990.52
2022-12-28T06:45:08.321Z,990.56
2022-12-28T06:46:08.260Z,990.57
2022-12-28T06:47:08.257Z,990.56
2022-12-28T06:48:08.268Z,990.52
2022-12-28T06:49:08.231Z,990.49
2022-12-28T06:50:08.253Z,990.54
2022-12-28T06:51:08.270Z,990.44
2022-12-28T06:52:08.196Z,990.40
2022-12-28T06:53:08.188Z,990.38
2022-12-28T06:54:08.201Z,990.36
2022-12-28T06:55:08.190Z,990.31
2022-12-28T06:56:08.198Z,990.30
2022-12-28T06:57:08.166Z,990.34
2022-12-28T06:58:08.194Z,990.23
2022-12-28T06:59:08.183Z,990.27
2022-12-28T07:00:08.141Z,990.30
2022-12-28T07:01:08.324Z,990.39
2022-12-28T07:02:08.295Z,990.24
2022-12-28T07:03:08.166Z,990.20
2022-12-28T07:04:08.153Z,990.22
2022-12-28T07:05:08.094Z,990.22
2022-12-28T07:06:08.119Z,990.30
2022-12-28T07:07:08.143Z,990.22
2022-12-28T07:08:12.568Z,990.16
2022-12-28T07:09:08.065Z,990.13
2022-12-28T07:10:08.098Z,990.18
2022-12-28T07:11:08.088Z,990.19
2022-12-28T07:12:08.119Z,990.11
2022-12-28T07:13:08.090Z,990.13
2022-12-28T07:14:08.044Z,990.22
2022-12-28T07:15:08.066Z,990.25
2022-12-28T07:16:08.046Z,990.18
2022-12-28T07:17:08.035Z,990.22
2022-12-28T07:18:08.161Z,990.24
2022-12-28T07:19:08.064Z,990.30
2022-12-28T07:20:08.037Z,990.23
2022-12-28T07:21:08.025Z,990.19
2022-12-28T07:22:08.012Z,990.24
2022-12-28T07:23:08.022Z,990.23
2022-12-28T07:24:08.038Z,990.15
2022-12-28T07:25:08.007Z,990.17
2022-12-28T07:26:08.019Z,990.10
2022-12-28T07:27:07.991Z,990.22
2022-12-28T07:28:07.958Z,990.23
2022-12-28T07:29:08.052Z,990.15
2022-12-28T07:30:07.965Z,990.19
2022-12-28T07:31:08.004Z,990.18
2022-12-28T07:32:07.946Z,990.14
2022-12-28T07:33:07.961Z,990.10
2022-12-28T07:34:07.941Z,990.06
2022-12-28T07:35:07.931Z,990.08
2022-12-28T07:36:07.887Z,990.04
2022-12-28T07:37:07.900Z,990.06
2022-12-28T07:38:07.879Z,990.06
2022-12-28T07:39:07.909Z,990.08
2022-12-28T07:40:07.917Z,990.09
2022-12-28T07:41:07.877Z,990.15
2022-12-28T07:42:07.875Z,990.19
2022-12-28T07:43:07.851Z,990.12
2022-12-28T07:44:07.865Z,990.18
2022-12-28T07:45:09.752Z,990.18
2022-12-28T07:46:07.894Z,990.09
2022-12-28T07:47:07.857Z,990.17
2022-12-28T07:48:07.828Z,990.24
2022-12-28T07:49:07.799Z,990.13
2022-12-28T07:50:07.835Z,990.17
2022-12-28T07:51:07.938Z,990.18
2022-12-28T07:52:07.824Z,990.14
2022-12-28T07:53:07.807Z,990.18
2022-12-28T07:54:07.793Z,990.17
2022-12-28T07:55:07.841Z,990.19
2022-12-28T07:56:07.800Z,990.28
2022-12-28T07:57:07.780Z,990.20
2022-12-28T07:58:07.780Z,990.19
2022-12-28T07:59:07.775Z,990.08
2022-12-28T08:00:07.727Z,990.14
2022-12-28T08:01:07.865Z,990.19
2022-12-28T08:02:07.975Z,990.26
2022-12-28T08:03:07.760Z,990.16
2022-12-28T08:04:07.731Z,990.14
2022-12-28T08:05:07.790Z,990.11
2022-12-28T08:06:07.711Z,990.13
2022-12-28T08:07:07.734Z,990.14
2022-12-28T08:08:07.685Z,990.02
2022-12-28T08:09:07.693Z,990.06
2022-12-28T08:10:07.703Z,990.11
2022-12-28T08:11:07.695Z,990.11
2022-12-28T08:12:07.674Z,990.12
2022-12-28T08:13:07.684Z,990.13
2022-12-28T08:14:07.681Z,990.22
2022-12-28T08:15:07.701Z,990.09
2022-12-28T08:16:07.627Z,990.11
2022-12-28T08:17:07.599Z,990.08
2022-12-28T08:18:07.661Z,990.20
2022-12-28T08:19:07.636Z,990.09
2022-12-28T08:20:07.604Z,990.02
2022-12-28T08:21:07.610Z,990.10
2022-12-28T08:22:07.604Z,990.02
2022-12-28T08:23:07.582Z,990.12
2022-12-28T08:24:07.630Z,990.02
2022-12-28T08:25:07.625Z,989.95
2022-12-28T08:26:07.560Z,989.97
2022-12-28T08:27:07.610Z,989.96
2022-12-28T08:28:07.553Z,989.96
2022-12-28T08:29:07.600Z,989.94
2022-12-28T08:30:07.564Z,990.00
2022-12-28T08:31:07.591Z,990.02
2022-12-28T08:32:07.571Z,989.99
2022-12-28T08:33:07.537Z,989.90
2022-12-28T08:34:07.541Z,989.94
2022-12-28T08:35:07.611Z,989.94
2022-12-28T08:36:07.529Z,990.02
2022-12-28T08:37:07.521Z,990.03
2022-12-28T08:38:07.489Z,990.03
2022-12-28T08:39:07.555Z,989.99
2022-12-28T08:40:07.475Z,989.99
2022-12-28T08:41:07.490Z,989.99
2022-12-28T08:42:07.486Z,990.05
2022-12-28T08:43:07.451Z,990.02
2022-12-28T08:44:07.469Z,989.97
2022-12-28T08:45:07.435Z,990.08
2022-12-28T08:46:07.584Z,990.10
2022-12-28T08:47:07.464Z,989.96
2022-12-28T08:48:07.412Z,989.98
2022-12-28T08:49:07.420Z,990.06
2022-12-28T08:50:07.768Z,990.05
2022-12-28T08:51:07.537Z,990.00
2022-12-28T08:52:07.406Z,990.08
2022-12-28T08:53:07.380Z,990.08
2022-12-28T08:54:07.363Z,990.12
2022-12-28T08:55:07.375Z,990.04
2022-12-28T08:56:07.416Z,990.03
2022-12-28T08:57:07.532Z,990.16
2022-12-28T08:58:07.392Z,990.01
2022-12-28T08:59:07.385Z,990.14
2022-12-28T09:00:07.377Z,990.05
2022-12-28T09:01:07.464Z,990.06
2022-12-28T09:02:07.430Z,990.09
2022-12-28T09:03:07.434Z,989.99
2022-12-28T09:04:07.297Z,989.96
2022-12-28T09:05:07.323Z,990.09
2022-12-28T09:06:07.286Z,990.06
2022-12-28T09:07:07.298Z,990.06
2022-12-28T09:08:07.318Z,990.17
2022-12-28T09:09:07.548Z,990.16
2022-12-28T09:10:07.343Z,990.16
2022-12-28T09:11:07.236Z,990.13
2022-12-28T09:12:07.259Z,990.16
2022-12-28T09:13:07.285Z,990.14
2022-12-28T09:14:07.268Z,990.27
2022-12-28T09:15:07.265Z,990.18
2022-12-28T09:16:07.251Z,990.12
2022-12-28T09:17:07.235Z,990.22
2022-12-28T09:18:07.201Z,990.21
2022-12-28T09:19:07.224Z,990.16
2022-12-28T09:20:07.192Z,990.22
2022-12-28T09:21:07.215Z,990.20
2022-12-28T09:22:07.198Z,990.17
2022-12-28T09:23:07.201Z,990.25
2022-12-28T09:24:07.256Z,990.24
2022-12-28T09:25:07.183Z,990.28
2022-12-28T09:26:08.150Z,990.16
2022-12-28T09:27:07.125Z,990.20
2022-12-28T09:28:07.164Z,990.22
2022-12-28T09:29:07.173Z,990.27
2022-12-28T09:30:07.258Z,990.24
2022-12-28T09:31:07.173Z,990.16
2022-12-28T09:32:07.149Z,990.21
2022-12-28T09:33:07.129Z,990.26
2022-12-28T09:35:09.146Z,990.17
2022-12-28T09:36:07.096Z,990.22
2022-12-28T09:37:07.104Z,990.25
2022-12-28T09:38:07.064Z,990.21
2022-12-28T09:39:07.129Z,990.21
2022-12-28T09:40:07.039Z,990.20
2022-12-28T09:41:07.072Z,990.17
2022-12-28T09:42:07.070Z,990.24
2022-12-28T09:43:07.044Z,990.27
2022-12-28T09:44:07.039Z,990.13
2022-12-28T09:45:07.031Z,990.25
2022-12-28T09:46:07.070Z,990.22
2022-12-28T09:47:07.045Z,990.19
2022-12-28T09:48:07.022Z,989.97
2022-12-28T09:49:06.972Z,990.02
2022-12-28T09:50:06.967Z,990.00
2022-12-28T09:51:07.078Z,990.14
2022-12-28T09:52:06.971Z,990.04
2022-12-28T09:53:07.092Z,990.06
2022-12-28T09:54:06.953Z,990.03
2022-12-28T09:55:06.973Z,990.04
2022-12-28T09:56:06.954Z,990.11
2022-12-28T09:57:07.083Z,990.06
2022-12-28T09:58:06.940Z,990.08
2022-12-28T09:59:06.954Z,989.99
2022-12-28T10:00:06.940Z,990.00
2022-12-28T10:01:06.922Z,990.01
2022-12-28T10:02:07.122Z,990.04
2022-12-28T10:03:06.956Z,990.02
2022-12-28T10:04:06.910Z,990.05
2022-12-28T10:05:06.917Z,989.97
2022-12-28T10:06:06.893Z,990.01
2022-12-28T10:07:06.897Z,989.98
2022-12-28T10:08:06.914Z,990.02
2022-12-28T10:09:06.862Z,989.95
2022-12-28T10:10:06.863Z,989.95
2022-12-28T10:11:06.871Z,989.94
2022-12-28T10:12:07.833Z,989.94
2022-12-28T10:13:16.564Z,989.95
2022-12-28T10:14:08.851Z,989.90
2022-12-28T10:15:06.867Z,989.91
2022-12-28T10:16:06.855Z,989.89
2022-12-28T10:17:06.793Z,989.86
2022-12-28T10:18:06.810Z,989.86
2022-12-28T10:19:06.867Z,989.86
2022-12-28T10:20:06.795Z,989.89
2022-12-28T10:21:06.810Z,989.83
2022-12-28T10:22:06.809Z,989.77
2022-12-28T10:23:06.795Z,989.80
2022-12-28T10:24:35.138Z,989.82
2022-12-28T10:25:08.748Z,989.85
2022-12-28T10:26:06.771Z,989.77
2022-12-28T10:27:06.761Z,989.81
2022-12-28T10:28:06.731Z,989.77
2022-12-28T10:29:06.744Z,989.81
2022-12-28T10:30:06.766Z,989.78
2022-12-28T10:31:06.773Z,989.70
2022-12-28T10:32:06.736Z,989.76
2022-12-28T10:33:09.760Z,989.60
2022-12-28T10:34:07.726Z,989.64
2022-12-28T10:35:06.770Z,989.65
2022-12-28T10:36:06.692Z,989.61
2022-12-28T10:37:06.694Z,989.59
2022-12-28T10:38:07.712Z,989.59
2022-12-28T10:39:06.689Z,989.64
2022-12-28T10:40:06.655Z,989.62
2022-12-28T10:41:06.684Z,989.60
2022-12-28T10:42:06.666Z,989.70
2022-12-28T10:43:10.782Z,989.63
2022-12-28T10:44:37.919Z,989.54
2022-12-28T10:45:07.639Z,989.57
2022-12-28T10:46:06.699Z,989.55
2022-12-28T10:47:06.676Z,989.53
2022-12-28T10:48:06.635Z,989.54
2022-12-28T10:49:09.824Z,989.50
2022-12-28T10:50:37.549Z,989.52
2022-12-28T10:51:08.644Z,989.54
2022-12-28T10:52:06.607Z,989.46
2022-12-28T10:53:06.617Z,989.49
2022-12-28T10:54:06.646Z,989.54
2022-12-28T10:55:08.099Z,989.44
2022-12-28T10:56:06.583Z,989.38
2022-12-28T10:57:06.562Z,989.42
2022-12-28T10:59:08.561Z,989.34
2022-12-28T11:00:06.550Z,989.39
2022-12-28T11:01:07.107Z,989.36
2022-12-28T11:02:06.733Z,989.36
2022-12-28T11:03:06.592Z,989.39
2022-12-28T11:04:06.507Z,989.29
2022-12-28T11:05:06.533Z,989.33
2022-12-28T11:06:06.506Z,989.22
2022-12-28T11:07:06.520Z,989.19
2022-12-28T11:08:06.511Z,989.15
2022-12-28T11:09:06.504Z,989.16
2022-12-28T11:10:06.518Z,989.05
2022-12-28T11:11:06.480Z,989.07
2022-12-28T11:12:06.485Z,989.19
2022-12-28T11:13:06.504Z,989.10
2022-12-28T11:14:06.482Z,989.09
2022-12-28T11:15:06.507Z,989.11
2022-12-28T11:16:06.442Z,988.96
2022-12-28T11:17:06.461Z,988.97
2022-12-28T11:18:06.468Z,988.97
2022-12-28T11:19:06.608Z,988.99
2022-12-28T11:20:06.451Z,988.92
2022-12-28T11:21:06.471Z,988.99
2022-12-28T11:22:06.400Z,988.96
2022-12-28T11:23:06.406Z,988.86
2022-12-28T11:24:06.476Z,988.90
2022-12-28T11:25:06.400Z,988.93
2022-12-28T11:26:06.451Z,988.90
2022-12-28T11:27:06.419Z,988.80
2022-12-28T11:28:06.401Z,988.86
2022-12-28T11:29:06.383Z,988.77
2022-12-28T11:30:06.425Z,988.79
2022-12-28T11:31:06.444Z,988.79
2022-12-28T11:32:06.347Z,988.68
2022-12-28T11:33:06.360Z,988.63
2022-12-28T11:34:06.389Z,988.65
2022-12-28T11:35:06.395Z,988.64
2022-12-28T11:36:10.052Z,988.65
2022-12-28T11:37:06.337Z,988.62
2022-12-28T11:38:06.318Z,988.54
2022-12-28T11:39:06.319Z,988.54
2022-12-28T11:40:06.320Z,988.53
2022-12-28T11:41:06.348Z,988.48
2022-12-28T11:43:07.322Z,988.49
2022-12-28T11:44:06.285Z,988.46
2022-12-28T11:45:06.286Z,988.44
2022-12-28T11:46:06.299Z,988.51
2022-12-28T11:47:06.257Z,988.44
2022-12-28T11:48:06.250Z,988.39
2022-12-28T11:49:06.261Z,988.38
2022-12-28T11:50:06.268Z,988.35
2022-12-28T11:51:06.268Z,988.39
2022-12-28T11:52:06.298Z,988.44
2022-12-28T11:53:12.155Z,988.36
2022-12-28T11:54:06.231Z,988.45
2022-12-28T11:55:06.216Z,988.44
2022-12-28T11:56:06.229Z,988.52
2022-12-28T11:57:06.304Z,988.41
2022-12-28T11:58:06.233Z,988.45
2022-12-28T11:59:07.203Z,988.52
2022-12-28T12:00:06.194Z,988.40
2022-12-28T12:01:06.171Z,988.42
2022-12-28T12:02:06.182Z,988.41
2022-12-28T12:03:06.259Z,988.34
2022-12-28T12:04:06.160Z,988.35
2022-12-28T12:05:06.185Z,988.44
2022-12-28T12:06:06.144Z,988.38
2022-12-28T12:07:06.180Z,988.45
2022-12-28T12:08:06.184Z,988.51
2022-12-28T12:09:06.122Z,988.46
2022-12-28T12:10:06.137Z,988.46
2022-12-28T12:11:06.097Z,988.29
2022-12-28T12:12:06.124Z,988.44
2022-12-28T12:13:06.098Z,988.40
2022-12-28T12:14:06.228Z,988.43
2022-12-28T12:15:06.111Z,988.34
2022-12-28T12:16:06.103Z,988.34
2022-12-28T12:17:06.222Z,988.39
2022-12-28T12:18:06.070Z,988.31
2022-12-28T12:19:06.210Z,988.29
2022-12-28T12:20:06.064Z,988.25
2022-12-28T12:21:10.237Z,988.30
2022-12-28T12:22:08.016Z,988.25
2022-12-28T12:23:06.069Z,988.25
2022-12-28T12:24:06.053Z,988.22
2022-12-28T12:25:06.155Z,988.13
2022-12-28T12:26:06.048Z,988.13
2022-12-28T12:27:11.891Z,988.15
2022-12-28T12:28:08.016Z,988.15
2022-12-28T12:29:06.019Z,988.26
2022-12-28T12:30:05.995Z,988.11
2022-12-28T12:31:06.052Z,988.21